sensor_id;sensor_type;location;lat;lon;timestamp;pressure;altitude;pressure_sealevel;temperature;humidity
35331;BME280;21441;52.190;20.910;2023-03-16T00:01:29;100322.91;;;1.00;100.00
35331;BME280;21441;52.190;20.910;2023-03-16T00:03:56;100327.53;;;0.97;100.00
35331;BME280;21441;52.190;20.910;2023-03-16T00:06:23;100323.66;;;0.90;100.00
35331;BME280;21441;52.190;20.910;2023-03-16T00:08:50;100327.75;;;0.94;100.00
35331;BME280;21441;52.190;20.910;2023-03-16T00:11:17;100326.19;;;0.78;100.00
35331;BME280;21441;52.190;20.910;2023-03-16T00:13:46;100333.22;;;0.78;100.00
35331;BME280;21441;52.190;20.910;2023-03-16T00:16:13;100330.81;;;0.75;100.00
35331;BME280;21441;52.190;20.910;2023-03-16T00:18:41;100340.91;;;0.68;100.00
35331;BME280;21441;52.190;20.910;2023-03-16T00:21:09;100337.41;;;0.68;100.00
35331;BME280;21441;52.190;20.910;2023-03-16T00:23:36;100343.72;;;0.65;100.00
35331;BME280;21441;52.190;20.910;2023-03-16T00:26:05;100340.69;;;0.71;100.00
35331;BME280;21441;52.190;20.910;2023-03-16T00:28:34;100352.13;;;0.83;100.00
35331;BME280;21441;52.190;20.910;2023-03-16T00:31:04;100346.03;;;0.70;100.00
35331;BME280;21441;52.190;20.910;2023-03-16T00:33:31;100355.06;;;0.66;100.00
35331;BME280;21441;52.190;20.910;2023-03-16T00:36:00;100353.41;;;0.65;100.00
35331;BME280;21441;52.190;20.910;2023-03-16T00:38:34;100364.00;;;0.76;100.00
35331;BME280;21441;52.190;20.910;2023-03-16T00:41:04;100362.75;;;0.69;100.00
35331;BME280;21441;52.190;20.910;2023-03-16T00:43:32;100362.94;;;0.66;100.00
35331;BME280;21441;52.190;20.910;2023-03-16T00:46:07;100365.16;;;0.85;100.00
35331;BME280;21441;52.190;20.910;2023-03-16T00:48:37;100367.91;;;0.57;100.00
35331;BME280;21441;52.190;20.910;2023-03-16T00:51:07;100348.97;;;0.52;100.00
35331;BME280;21441;52.190;20.910;2023-03-16T00:53:35;100364.41;;;0.57;100.00
35331;BME280;21441;52.190;20.910;2023-03-16T00:56:03;100355.69;;;0.44;100.00
35331;BME280;21441;52.190;20.910;2023-03-16T00:58:30;100352.75;;;0.35;100.00
35331;BME280;21441;52.190;20.910;2023-03-16T01:01:00;100365.47;;;0.54;100.00
35331;BME280;21441;52.190;20.910;2023-03-16T01:03:29;100356.97;;;0.51;100.00
35331;BME280;21441;52.190;20.910;2023-03-16T01:05:56;100362.53;;;0.46;100.00
35331;BME280;21441;52.190;20.910;2023-03-16T01:08:24;100358.00;;;0.61;100.00
35331;BME280;21441;52.190;20.910;2023-03-16T01:10:52;100369.16;;;0.65;100.00
35331;BME280;21441;52.190;20.910;2023-03-16T01:13:20;100368.84;;;0.69;100.00
35331;BME280;21441;52.190;20.910;2023-03-16T01:15:49;100365.69;;;0.51;100.00
35331;BME280;21441;52.190;20.910;2023-03-16T01:18:17;100373.44;;;0.40;100.00
35331;BME280;21441;52.190;20.910;2023-03-16T01:20:46;100377.41;;;0.33;100.00
35331;BME280;21441;52.190;20.910;2023-03-16T01:23:16;100378.56;;;0.29;100.00
35331;BME280;21441;52.190;20.910;2023-03-16T01:25:43;100376.13;;;0.26;100.00
35331;BME280;21441;52.190;20.910;2023-03-16T01:28:18;100379.66;;;0.12;100.00
35331;BME280;21441;52.190;20.910;2023-03-16T01:30:45;100376.09;;;0.13;100.00
35331;BME280;21441;52.190;20.910;2023-03-16T01:33:12;100377.84;;;-0.01;100.00
35331;BME280;21441;52.190;20.910;2023-03-16T01:35:40;100387.88;;;-0.34;100.00
35331;BME280;21441;52.190;20.910;2023-03-16T01:38:08;100385.84;;;-0.44;100.00
35331;BME280;21441;52.190;20.910;2023-03-16T01:40:36;100386.53;;;-0.54;100.00
35331;BME280;21441;52.190;20.910;2023-03-16T01:43:03;100381.13;;;-0.66;100.00
35331;BME280;21441;52.190;20.910;2023-03-16T01:49:03;100394.13;;;-0.93;100.00
35331;BME280;21441;52.190;20.910;2023-03-16T01:51:36;100387.84;;;-0.90;100.00
35331;BME280;21441;52.190;20.910;2023-03-16T01:54:12;100390.41;;;-0.74;100.00
35331;BME280;21441;52.190;20.910;2023-03-16T01:56:45;100386.06;;;-0.61;100.00
35331;BME280;21441;52.190;20.910;2023-03-16T01:59:16;100383.16;;;-0.56;100.00
35331;BME280;21441;52.190;20.910;2023-03-16T02:01:46;100393.28;;;-0.65;100.00
35331;BME280;21441;52.190;20.910;2023-03-16T02:04:25;100382.13;;;-0.54;100.00
35331;BME280;21441;52.190;20.910;2023-03-16T02:06:56;100393.34;;;-0.52;100.00
35331;BME280;21441;52.190;20.910;2023-03-16T02:09:24;100384.81;;;-0.55;100.00
35331;BME280;21441;52.190;20.910;2023-03-16T02:11:54;100382.16;;;-0.82;100.00
35331;BME280;21441;52.190;20.910;2023-03-16T02:14:21;100394.59;;;-0.86;100.00
35331;BME280;21441;52.190;20.910;2023-03-16T02:16:50;100397.22;;;-0.86;100.00
35331;BME280;21441;52.190;20.910;2023-03-16T02:19:29;100391.34;;;-0.90;100.00
35331;BME280;21441;52.190;20.910;2023-03-16T02:22:03;100397.22;;;-0.86;100.00
35331;BME280;21441;52.190;20.910;2023-03-16T02:24:32;100397.41;;;-0.89;100.00
35331;BME280;21441;52.190;20.910;2023-03-16T02:27:02;100394.78;;;-0.89;100.00
35331;BME280;21441;52.190;20.910;2023-03-16T02:30:03;100391.22;;;-0.88;100.00
35331;BME280;21441;52.190;20.910;2023-03-16T02:32:32;100404.69;;;-0.80;100.00
35331;BME280;21441;52.190;20.910;2023-03-16T02:35:02;100400.13;;;-0.91;100.00
35331;BME280;21441;52.190;20.910;2023-03-16T02:37:29;100403.69;;;-0.92;100.00
35331;BME280;21441;52.190;20.910;2023-03-16T02:39:58;100412.63;;;-1.10;100.00
35331;BME280;21441;52.190;20.910;2023-03-16T02:42:26;100411.13;;;-1.14;100.00
35331;BME280;21441;52.190;20.910;2023-03-16T02:44:56;100412.00;;;-1.14;100.00
35331;BME280;21441;52.190;20.910;2023-03-16T02:47:32;100415.91;;;-1.21;100.00
35331;BME280;21441;52.190;20.910;2023-03-16T02:50:01;100430.38;;;-1.30;100.00
35331;BME280;21441;52.190;20.910;2023-03-16T02:52:31;100431.66;;;-1.37;100.00
35331;BME280;21441;52.190;20.910;2023-03-16T02:54:59;100431.13;;;-1.28;100.00
35331;BME280;21441;52.190;20.910;2023-03-16T02:57:26;100432.13;;;-1.44;100.00
35331;BME280;21441;52.190;20.910;2023-03-16T02:59:53;100431.03;;;-1.40;100.00
35331;BME280;21441;52.190;20.910;2023-03-16T03:02:20;100435.59;;;-1.30;100.00
35331;BME280;21441;52.190;20.910;2023-03-16T03:04:49;100439.56;;;-1.22;100.00
35331;BME280;21441;52.190;20.910;2023-03-16T03:07:20;100434.41;;;-1.24;100.00
35331;BME280;21441;52.190;20.910;2023-03-16T03:09:56;100441.16;;;-1.20;100.00
35331;BME280;21441;52.190;20.910;2023-03-16T03:12:23;100443.41;;;-1.14;100.00
35331;BME280;21441;52.190;20.910;2023-03-16T03:14:50;100445.66;;;-1.08;100.00
35331;BME280;21441;52.190;20.910;2023-03-16T03:17:18;100452.31;;;-1.02;100.00
35331;BME280;21441;52.190;20.910;2023-03-16T03:19:45;100439.78;;;-0.97;100.00
35331;BME280;21441;52.190;20.910;2023-03-16T03:22:14;100445.94;;;-0.98;100.00
35331;BME280;21441;52.190;20.910;2023-03-16T03:24:43;100454.84;;;-1.00;100.00
35331;BME280;21441;52.190;20.910;2023-03-16T03:27:10;100455.91;;;-1.19;100.00
35331;BME280;21441;52.190;20.910;2023-03-16T03:29:38;100460.41;;;-1.21;100.00
35331;BME280;21441;52.190;20.910;2023-03-16T03:32:06;100462.94;;;-1.19;100.00
35331;BME280;21441;52.190;20.910;2023-03-16T03:34:33;100469.88;;;-1.18;100.00
35331;BME280;21441;52.190;20.910;2023-03-16T03:37:01;100469.97;;;-1.06;100.00
35331;BME280;21441;52.190;20.910;2023-03-16T03:39:29;100467.34;;;-1.06;100.00
35331;BME280;21441;52.190;20.910;2023-03-16T03:41:57;100470.06;;;-1.07;100.00
35331;BME280;21441;52.190;20.910;2023-03-16T03:44:24;100471.53;;;-1.17;100.00
35331;BME280;21441;52.190;20.910;2023-03-16T03:46:51;100475.63;;;-1.28;100.00
35331;BME280;21441;52.190;20.910;2023-03-16T03:49:18;100475.81;;;-1.31;100.00
35331;BME280;21441;52.190;20.910;2023-03-16T03:51:46;100464.28;;;-1.42;100.00
35331;BME280;21441;52.190;20.910;2023-03-16T03:54:13;100485.59;;;-1.34;100.00
35331;BME280;21441;52.190;20.910;2023-03-16T03:56:42;100481.13;;;-1.32;100.00
35331;BME280;21441;52.190;20.910;2023-03-16T03:59:09;100490.47;;;-1.42;100.00
35331;BME280;21441;52.190;20.910;2023-03-16T04:01:36;100493.69;;;-1.53;100.00
35331;BME280;21441;52.190;20.910;2023-03-16T04:04:04;100494.72;;;-1.56;100.00
35331;BME280;21441;52.190;20.910;2023-03-16T04:06:31;100492.34;;;-1.60;100.00
35331;BME280;21441;52.190;20.910;2023-03-16T04:08:58;100497.00;;;-1.66;100.00
35331;BME280;21441;52.190;20.910;2023-03-16T04:11:25;100486.53;;;-1.66;100.00
35331;BME280;21441;52.190;20.910;2023-03-16T04:13:54;100498.94;;;-1.69;100.00
35331;BME280;21441;52.190;20.910;2023-03-16T04:16:21;100509.91;;;-1.78;100.00
35331;BME280;21441;52.190;20.910;2023-03-16T04:18:51;100507.31;;;-1.94;100.00
35331;BME280;21441;52.190;20.910;2023-03-16T04:21:20;100506.97;;;-1.88;100.00
35331;BME280;21441;52.190;20.910;2023-03-16T04:23:48;100507.63;;;-1.84;100.00
35331;BME280;21441;52.190;20.910;2023-03-16T04:26:19;100504.19;;;-1.85;100.00
35331;BME280;21441;52.190;20.910;2023-03-16T04:28:47;100506.47;;;-1.79;100.00
35331;BME280;21441;52.190;20.910;2023-03-16T04:31:15;100499.94;;;-1.72;100.00
35331;BME280;21441;52.190;20.910;2023-03-16T04:33:43;100505.19;;;-1.72;100.00
35331;BME280;21441;52.190;20.910;2023-03-16T04:36:10;100511.66;;;-1.63;100.00
35331;BME280;21441;52.190;20.910;2023-03-16T04:38:37;100500.44;;;-1.65;100.00
35331;BME280;21441;52.190;20.910;2023-03-16T04:41:05;100507.69;;;-1.54;100.00
35331;BME280;21441;52.190;20.910;2023-03-16T04:43:33;100503.81;;;-1.63;100.00
35331;BME280;21441;52.190;20.910;2023-03-16T04:46:00;100513.63;;;-1.67;100.00
35331;BME280;21441;52.190;20.910;2023-03-16T04:48:29;100511.66;;;-1.63;100.00
35331;BME280;21441;52.190;20.910;2023-03-16T04:50:58;100524.19;;;-1.68;100.00
35331;BME280;21441;52.190;20.910;2023-03-16T04:53:26;100525.97;;;-1.69;100.00
35331;BME280;21441;52.190;20.910;2023-03-16T04:55:53;100527.31;;;-1.77;100.00
35331;BME280;21441;52.190;20.910;2023-03-16T04:58:20;100540.38;;;-1.77;100.00
35331;BME280;21441;52.190;20.910;2023-03-16T05:00:48;100526.63;;;-1.81;100.00
35331;BME280;21441;52.190;20.910;2023-03-16T05:03:17;100533.56;;;-1.80;100.00
35331;BME280;21441;52.190;20.910;2023-03-16T05:05:47;100537.94;;;-1.80;100.00
35331;BME280;21441;52.190;20.910;2023-03-16T05:08:14;100544.41;;;-1.72;100.00
35331;BME280;21441;52.190;20.910;2023-03-16T05:10:41;100547.03;;;-1.72;100.00
35331;BME280;21441;52.190;20.910;2023-03-16T05:13:09;100542.66;;;-1.71;100.00
35331;BME280;21441;52.190;20.910;2023-03-16T05:15:36;100541.41;;;-1.80;100.00
35331;BME280;21441;52.190;20.910;2023-03-16T05:18:04;100541.41;;;-1.80;100.00
35331;BME280;21441;52.190;20.910;2023-03-16T05:20:31;100539.72;;;-1.81;100.00
35331;BME280;21441;52.190;20.910;2023-03-16T05:23:00;100544.91;;;-1.65;100.00
35331;BME280;21441;52.190;20.910;2023-03-16T05:25:28;100550.34;;;-1.68;100.00
35331;BME280;21441;52.190;20.910;2023-03-16T05:27:56;100550.91;;;-1.63;100.00
35331;BME280;21441;52.190;20.910;2023-03-16T05:30:23;100545.34;;;-1.57;100.00
35331;BME280;21441;52.190;20.910;2023-03-16T05:32:51;100551.91;;;-1.50;100.00
35331;BME280;21441;52.190;20.910;2023-03-16T05:35:19;100553.88;;;-1.53;100.00
35331;BME280;21441;52.190;20.910;2023-03-16T05:37:46;100554.78;;;-1.54;100.00
35331;BME280;21441;52.190;20.910;2023-03-16T05:40:16;100552.78;;;-1.49;100.00
35331;BME280;21441;52.190;20.910;2023-03-16T05:42:44;100564.09;;;-1.49;100.00
35331;BME280;21441;52.190;20.910;2023-03-16T05:45:12;100561.28;;;-1.46;100.00
35331;BME280;21441;52.190;20.910;2023-03-16T05:47:40;100556.41;;;-1.36;100.00
35331;BME280;21441;52.190;20.910;2023-03-16T05:50:10;100555.59;;;-1.22;100.00
35331;BME280;21441;52.190;20.910;2023-03-16T05:52:38;100566.69;;;-1.02;100.00
35331;BME280;21441;52.190;20.910;2023-03-16T05:55:07;100560.09;;;-0.94;100.00
35331;BME280;21441;52.190;20.910;2023-03-16T05:57:35;100559.59;;;-1.00;100.00
35331;BME280;21441;52.190;20.910;2023-03-16T06:00:04;100559.13;;;-0.93;100.00
35331;BME280;21441;52.190;20.910;2023-03-16T06:02:37;100565.81;;;-0.87;100.00
35331;BME280;21441;52.190;20.910;2023-03-16T06:05:05;100563.88;;;-0.69;100.00
35331;BME280;21441;52.190;20.910;2023-03-16T06:07:34;100573.84;;;-0.46;100.00
35331;BME280;21441;52.190;20.910;2023-03-16T06:10:02;100575.59;;;-0.46;100.00
35331;BME280;21441;52.190;20.910;2023-03-16T06:12:29;100572.31;;;-0.35;100.00
35331;BME280;21441;52.190;20.910;2023-03-16T06:14:58;100575.44;;;-0.14;100.00
35331;BME280;21441;52.190;20.910;2023-03-16T06:17:26;100570.81;;;0.04;100.00
35331;BME280;21441;52.190;20.910;2023-03-16T06:19:53;100581.41;;;0.02;100.00
35331;BME280;21441;52.190;20.910;2023-03-16T06:22:21;100586.09;;;0.11;100.00
35331;BME280;21441;52.190;20.910;2023-03-16T06:24:48;100587.38;;;0.18;100.00
35331;BME280;21441;52.190;20.910;2023-03-16T06:27:16;100578.41;;;0.50;100.00
35331;BME280;21441;52.190;20.910;2023-03-16T06:29:45;100585.75;;;0.72;100.00
35331;BME280;21441;52.190;20.910;2023-03-16T06:32:14;100587.91;;;0.79;100.00
35331;BME280;21441;52.190;20.910;2023-03-16T06:34:41;100592.00;;;0.84;100.00
35331;BME280;21441;52.190;20.910;2023-03-16T06:37:08;100583.75;;;1.02;100.00
35331;BME280;21441;52.190;20.910;2023-03-16T06:39:35;100587.06;;;1.19;100.00
35331;BME280;21441;52.190;20.910;2023-03-16T06:42:03;100582.38;;;1.10;100.00
35331;BME280;21441;52.190;20.910;2023-03-16T06:44:30;100589.91;;;1.29;100.00
35331;BME280;21441;52.190;20.910;2023-03-16T06:46:58;100594.13;;;1.57;100.00
35331;BME280;21441;52.190;20.910;2023-03-16T06:49:27;100593.59;;;1.64;100.00
35331;BME280;21441;52.190;20.910;2023-03-16T06:51:54;100592.66;;;1.65;100.00
35331;BME280;21441;52.190;20.910;2023-03-16T06:54:23;100601.72;;;1.61;100.00
35331;BME280;21441;52.190;20.910;2023-03-16T06:56:50;100605.69;;;1.41;100.00
35331;BME280;21441;52.190;20.910;2023-03-16T06:59:18;100612.19;;;1.36;100.00
35331;BME280;21441;52.190;20.910;2023-03-16T07:01:45;100605.88;;;1.26;100.00
35331;BME280;21441;52.190;20.910;2023-03-16T07:04:12;100612.91;;;1.12;100.00
35331;BME280;21441;52.190;20.910;2023-03-16T07:06:41;100615.94;;;1.06;100.00
35331;BME280;21441;52.190;20.910;2023-03-16T07:09:08;100619.88;;;1.39;100.00
35331;BME280;21441;52.190;20.910;2023-03-16T07:11:37;100627.94;;;1.76;100.00
35331;BME280;21441;52.190;20.910;2023-03-16T07:14:04;100627.16;;;1.86;100.00
35331;BME280;21441;52.190;20.910;2023-03-16T07:16:31;100636.84;;;1.60;100.00
35331;BME280;21441;52.190;20.910;2023-03-16T07:18:59;100626.53;;;1.57;100.00
35331;BME280;21441;52.190;20.910;2023-03-16T07:21:26;100629.59;;;1.64;100.00
35331;BME280;21441;52.190;20.910;2023-03-16T07:23:55;100626.63;;;1.69;100.00
35331;BME280;21441;52.190;20.910;2023-03-16T07:26:22;100629.69;;;1.62;100.00
35331;BME280;21441;52.190;20.910;2023-03-16T07:28:50;100620.66;;;1.79;100.00
35331;BME280;21441;52.190;20.910;2023-03-16T07:31:17;100629.53;;;2.28;100.00
35331;BME280;21441;52.190;20.910;2023-03-16T07:33:44;100623.66;;;2.24;100.00
35331;BME280;21441;52.190;20.910;2023-03-16T07:36:11;100621.97;;;2.11;100.00
35331;BME280;21441;52.190;20.910;2023-03-16T07:38:39;100629.16;;;2.09;100.00
35331;BME280;21441;52.190;20.910;2023-03-16T07:41:26;100634.47;;;2.33;100.00
35331;BME280;21441;52.190;20.910;2023-03-16T07:43:54;100639.53;;;2.48;100.00
35331;BME280;21441;52.190;20.910;2023-03-16T07:46:23;100632.03;;;2.79;100.00
35331;BME280;21441;52.190;20.910;2023-03-16T07:48:50;100632.47;;;2.49;100.00
35331;BME280;21441;52.190;20.910;2023-03-16T07:51:17;100633.88;;;2.16;100.00
35331;BME280;21441;52.190;20.910;2023-03-16T07:53:44;100643.41;;;2.56;100.00
35331;BME280;21441;52.190;20.910;2023-03-16T07:56:11;100639.91;;;3.16;100.00
35331;BME280;21441;52.190;20.910;2023-03-16T07:58:40;100649.00;;;3.47;100.00
35331;BME280;21441;52.190;20.910;2023-03-16T08:01:07;100635.22;;;3.66;100.00
35331;BME280;21441;52.190;20.910;2023-03-16T08:03:36;100642.28;;;3.55;100.00
35331;BME280;21441;52.190;20.910;2023-03-16T08:06:04;100635.38;;;3.65;100.00
35331;BME280;21441;52.190;20.910;2023-03-16T08:08:31;100638.63;;;3.80;100.00
35331;BME280;21441;52.190;20.910;2023-03-16T08:10:58;100618.94;;;3.95;100.00
35331;BME280;21441;52.190;20.910;2023-03-16T08:13:26;100641.13;;;3.23;100.00
35331;BME280;21441;52.190;20.910;2023-03-16T08:15:55;100632.72;;;3.65;100.00
35331;BME280;21441;52.190;20.910;2023-03-16T08:18:27;100639.84;;;3.87;100.00
35331;BME280;21441;52.190;20.910;2023-03-16T08:20:55;100644.53;;;4.40;100.00
35331;BME280;21441;52.190;20.910;2023-03-16T08:23:23;100640.28;;;4.71;100.00
35331;BME280;21441;52.190;20.910;2023-03-16T08:25:52;100642.91;;;4.82;100.00
35331;BME280;21441;52.190;20.910;2023-03-16T08:28:19;100643.47;;;4.08;100.00
35331;BME280;21441;52.190;20.910;2023-03-16T08:30:48;100642.72;;;3.95;100.00
35331;BME280;21441;52.190;20.910;2023-03-16T08:33:17;100639.94;;;3.85;100.00
35331;BME280;21441;52.190;20.910;2023-03-16T08:35:46;100640.47;;;4.13;100.00
35331;BME280;21441;52.190;20.910;2023-03-16T08:38:14;100652.94;;;4.22;98.10
35331;BME280;21441;52.190;20.910;2023-03-16T08:40:42;100639.47;;;3.69;98.85
35331;BME280;21441;52.190;20.910;2023-03-16T08:43:15;100659.84;;;3.67;100.00
35331;BME280;21441;52.190;20.910;2023-03-16T08:45:43;100659.69;;;4.26;99.51
35331;BME280;21441;52.190;20.910;2023-03-16T08:48:11;100650.13;;;4.69;94.61
35331;BME280;21441;52.190;20.910;2023-03-16T08:50:41;100648.59;;;4.66;93.05
35331;BME280;21441;52.190;20.910;2023-03-16T08:53:10;100656.25;;;4.69;91.15
35331;BME280;21441;52.190;20.910;2023-03-16T08:55:38;100653.00;;;5.21;89.36
35331;BME280;21441;52.190;20.910;2023-03-16T08:58:06;100663.28;;;4.91;87.44
35331;BME280;21441;52.190;20.910;2023-03-16T09:00:33;100663.66;;;5.30;84.65
35331;BME280;21441;52.190;20.910;2023-03-16T09:03:01;100664.41;;;5.53;83.06
35331;BME280;21441;52.190;20.910;2023-03-16T09:05:29;100672.41;;;5.84;78.97
35331;BME280;21441;52.190;20.910;2023-03-16T09:07:59;100672.66;;;5.81;77.85
35331;BME280;21441;52.190;20.910;2023-03-16T09:10:26;100668.91;;;5.42;78.59
35331;BME280;21441;52.190;20.910;2023-03-16T09:12:53;100666.22;;;5.21;81.11
35331;BME280;21441;52.190;20.910;2023-03-16T09:15:21;100666.09;;;5.96;76.33
35331;BME280;21441;52.190;20.910;2023-03-16T09:17:48;100661.56;;;6.08;70.45
35331;BME280;21441;52.190;20.910;2023-03-16T09:20:16;100667.22;;;5.62;72.28
35331;BME280;21441;52.190;20.910;2023-03-16T09:22:46;100666.00;;;6.08;69.99
35331;BME280;21441;52.190;20.910;2023-03-16T09:25:14;100666.66;;;5.79;68.84
35331;BME280;21441;52.190;20.910;2023-03-16T09:27:42;100660.94;;;6.26;68.24
35331;BME280;21441;52.190;20.910;2023-03-16T09:30:11;100658.91;;;5.87;67.00
35331;BME280;21441;52.190;20.910;2023-03-16T09:32:39;100667.31;;;6.13;68.75
35331;BME280;21441;52.190;20.910;2023-03-16T09:35:07;100667.25;;;6.75;65.43
35331;BME280;21441;52.190;20.910;2023-03-16T09:37:34;100667.56;;;6.91;63.24
35331;BME280;21441;52.190;20.910;2023-03-16T09:40:02;100656.13;;;7.69;60.04
35331;BME280;21441;52.190;20.910;2023-03-16T09:42:35;100656.97;;;7.30;57.45
35331;BME280;21441;52.190;20.910;2023-03-16T09:45:11;100660.25;;;6.64;59.15
35331;BME280;21441;52.190;20.910;2023-03-16T09:47:41;100661.81;;;6.86;59.71
35331;BME280;21441;52.190;20.910;2023-03-16T09:50:14;100659.94;;;6.48;60.90
35331;BME280;21441;52.190;20.910;2023-03-16T09:52:47;100660.53;;;6.80;60.86
35331;BME280;21441;52.190;20.910;2023-03-16T09:55:25;100662.00;;;7.62;58.36
35331;BME280;21441;52.190;20.910;2023-03-16T09:57:56;100666.06;;;8.14;56.37
35331;BME280;21441;52.190;20.910;2023-03-16T10:00:26;100665.19;;;8.23;55.58
35331;BME280;21441;52.190;20.910;2023-03-16T10:03:07;100659.00;;;8.42;54.35
35331;BME280;21441;52.190;20.910;2023-03-16T10:05:36;100656.84;;;8.83;53.05
35331;BME280;21441;52.190;20.910;2023-03-16T10:08:09;100654.81;;;9.13;52.38
35331;BME280;21441;52.190;20.910;2023-03-16T10:10:54;100651.31;;;8.94;50.12
35331;BME280;21441;52.190;20.910;2023-03-16T10:13:32;100663.78;;;8.66;51.27
35331;BME280;21441;52.190;20.910;2023-03-16T10:16:05;100665.44;;;8.39;51.11
35331;BME280;21441;52.190;20.910;2023-03-16T10:18:38;100655.03;;;9.01;50.12
35331;BME280;21441;52.190;20.910;2023-03-16T10:21:12;100659.28;;;8.94;49.10
35331;BME280;21441;52.190;20.910;2023-03-16T10:23:41;100660.66;;;9.16;49.49
35331;BME280;21441;52.190;20.910;2023-03-16T10:26:17;100676.53;;;7.58;51.73
35331;BME280;21441;52.190;20.910;2023-03-16T10:28:50;100672.59;;;8.29;51.10
35331;BME280;21441;52.190;20.910;2023-03-16T10:31:20;100659.06;;;8.60;50.11
35331;BME280;21441;52.190;20.910;2023-03-16T10:33:52;100654.31;;;8.54;49.68
35331;BME280;21441;52.190;20.910;2023-03-16T10:36:24;100666.41;;;8.38;51.02
35331;BME280;21441;52.190;20.910;2023-03-16T10:38:56;100662.53;;;8.88;49.90
35331;BME280;21441;52.190;20.910;2023-03-16T10:41:31;100667.81;;;7.85;51.16
35331;BME280;21441;52.190;20.910;2023-03-16T10:44:02;100667.06;;;8.78;48.84
35331;BME280;21441;52.190;20.910;2023-03-16T10:46:37;100667.84;;;9.78;47.62
35331;BME280;21441;52.190;20.910;2023-03-16T10:49:19;100661.47;;;9.53;46.33
35331;BME280;21441;52.190;20.910;2023-03-16T10:51:46;100663.69;;;8.58;48.95
35331;BME280;21441;52.190;20.910;2023-03-16T10:54:17;100646.75;;;9.22;49.06
35331;BME280;21441;52.190;20.910;2023-03-16T10:56:46;100667.63;;;8.81;49.40
35331;BME280;21441;52.190;20.910;2023-03-16T10:59:26;100666.63;;;8.82;48.88
35331;BME280;21441;52.190;20.910;2023-03-16T11:01:54;100667.28;;;9.48;47.73
35331;BME280;21441;52.190;20.910;2023-03-16T11:04:22;100671.53;;;8.59;48.10
35331;BME280;21441;52.190;20.910;2023-03-16T11:06:54;100678.91;;;7.03;52.96
35331;BME280;21441;52.190;20.910;2023-03-16T11:09:24;100664.94;;;7.20;53.89
35331;BME280;21441;52.190;20.910;2023-03-16T11:11:52;100674.56;;;7.51;53.64
35331;BME280;21441;52.190;20.910;2023-03-16T11:14:25;100674.28;;;7.63;53.64
35331;BME280;21441;52.190;20.910;2023-03-16T11:16:59;100669.56;;;8.61;50.13
35331;BME280;21441;52.190;20.910;2023-03-16T11:19:30;100652.28;;;9.11;48.95
35331;BME280;21441;52.190;20.910;2023-03-16T11:22:01;100655.25;;;9.62;47.55
35331;BME280;21441;52.190;20.910;2023-03-16T11:24:37;100652.63;;;10.48;46.97
35331;BME280;21441;52.190;20.910;2023-03-16T11:27:16;100644.97;;;11.37;44.79
35331;BME280;21441;52.190;20.910;2023-03-16T11:29:57;100641.31;;;11.79;42.64
35331;BME280;21441;52.190;20.910;2023-03-16T11:32:28;100633.28;;;10.20;45.04
35331;BME280;21441;52.190;20.910;2023-03-16T11:34:57;100653.38;;;9.36;46.96
35331;BME280;21441;52.190;20.910;2023-03-16T11:37:35;100655.75;;;8.11;50.00
35331;BME280;21441;52.190;20.910;2023-03-16T11:40:19;100645.81;;;7.36;51.65
35331;BME280;21441;52.190;20.910;2023-03-16T11:42:58;100660.22;;;7.34;51.72
35331;BME280;21441;52.190;20.910;2023-03-16T11:45:37;100651.94;;;7.17;51.47
35331;BME280;21441;52.190;20.910;2023-03-16T11:48:23;100642.97;;;6.29;53.70
35331;BME280;21441;52.190;20.910;2023-03-16T11:51:03;100661.19;;;6.13;53.66
35331;BME280;21441;52.190;20.910;2023-03-16T11:53:50;100657.75;;;6.32;53.27
35331;BME280;21441;52.190;20.910;2023-03-16T11:56:27;100666.22;;;6.26;54.32
35331;BME280;21441;52.190;20.910;2023-03-16T11:59:13;100646.38;;;7.40;52.76
35331;BME280;21441;52.190;20.910;2023-03-16T12:01:56;100664.22;;;7.67;51.76
35331;BME280;21441;52.190;20.910;2023-03-16T12:04:43;100665.19;;;7.66;51.26
35331;BME280;21441;52.190;20.910;2023-03-16T12:07:26;100657.53;;;7.14;52.18
35331;BME280;21441;52.190;20.910;2023-03-16T12:10:11;100683.38;;;7.41;50.14
35331;BME280;21441;52.190;20.910;2023-03-16T12:12:54;100668.03;;;7.45;50.71
35331;BME280;21441;52.190;20.910;2023-03-16T12:15:31;100680.97;;;6.49;53.30
35331;BME280;21441;52.190;20.910;2023-03-16T12:18:07;100666.88;;;6.08;55.01
35331;BME280;21441;52.190;20.910;2023-03-16T12:20:42;100669.44;;;5.77;56.24
35331;BME280;21441;52.190;20.910;2023-03-16T12:23:12;100666.09;;;5.96;56.89
35331;BME280;21441;52.190;20.910;2023-03-16T12:25:44;100676.97;;;6.65;54.65
35331;BME280;21441;52.190;20.910;2023-03-16T12:28:20;100674.09;;;6.68;54.02
35331;BME280;21441;52.190;20.910;2023-03-16T12:30:54;100667.78;;;6.59;53.89
35331;BME280;21441;52.190;20.910;2023-03-16T12:33:35;100681.66;;;5.69;56.45
35331;BME280;21441;52.190;20.910;2023-03-16T12:36:26;100679.03;;;5.57;58.02
35331;BME280;21441;52.190;20.910;2023-03-16T12:39:02;100683.81;;;5.43;59.31
35331;BME280;21441;52.190;20.910;2023-03-16T12:41:38;100675.34;;;5.28;58.77
35331;BME280;21441;52.190;20.910;2023-03-16T12:44:14;100684.78;;;4.98;63.92
35331;BME280;21441;52.190;20.910;2023-03-16T12:46:51;100680.41;;;5.20;65.06
35331;BME280;21441;52.190;20.910;2023-03-16T12:49:26;100691.03;;;5.08;65.78
35331;BME280;21441;52.190;20.910;2023-03-16T12:51:59;100683.38;;;5.58;62.35
35331;BME280;21441;52.190;20.910;2023-03-16T12:54:26;100682.72;;;5.66;61.09
35331;BME280;21441;52.190;20.910;2023-03-16T12:57:00;100685.41;;;5.02;62.01
35331;BME280;21441;52.190;20.910;2023-03-16T12:59:37;100686.00;;;4.94;62.24